createdAt,value
2022-12-04T00:01:09.559Z,32.90
2022-12-04T00:03:36.980Z,34.40
2022-12-04T00:06:07.740Z,36.07
2022-12-04T00:08:34.814Z,36.13
2022-12-04T00:11:02.991Z,36.63
2022-12-04T00:13:29.760Z,31.10
2022-12-04T00:15:56.474Z,33.13
2022-12-04T00:18:23.348Z,32.10
2022-12-04T00:20:50.041Z,33.57
2022-12-04T00:23:16.724Z,33.80
2022-12-04T00:25:48.463Z,31.30
2022-12-04T00:28:19.213Z,29.00
2022-12-04T00:30:46.464Z,30.43
2022-12-04T00:33:13.980Z,32.83
2022-12-04T00:35:40.935Z,29.87
2022-12-04T00:38:08.038Z,31.13
2022-12-04T00:40:34.760Z,32.10
2022-12-04T00:43:01.496Z,29.53
2022-12-04T00:45:28.251Z,28.20
2022-12-04T00:47:55.025Z,31.83
2022-12-04T00:50:22.034Z,28.73
2022-12-04T00:52:48.707Z,30.83
2022-12-04T00:55:15.475Z,30.57
2022-12-04T00:57:42.123Z,34.10
2022-12-04T01:00:09.239Z,29.60
2022-12-04T01:02:35.905Z,32.60
2022-12-04T01:05:02.833Z,29.30
2022-12-04T01:07:29.549Z,31.10
2022-12-04T01:09:56.996Z,33.57
2022-12-04T01:12:23.844Z,30.43
2022-12-04T01:14:50.670Z,29.77
2022-12-04T01:17:17.327Z,33.40
2022-12-04T01:19:44.013Z,32.00
2022-12-04T01:22:10.676Z,36.40
2022-12-04T01:24:37.327Z,31.60
2022-12-04T01:27:04.020Z,35.60
2022-12-04T01:29:30.721Z,38.57
2022-12-04T01:31:57.399Z,36.63
2022-12-04T01:34:25.200Z,36.67
2022-12-04T01:36:53.116Z,34.07
2022-12-04T01:39:19.907Z,34.93
2022-12-04T01:41:46.577Z,34.67
2022-12-04T01:44:17.841Z,34.57
2022-12-04T01:46:46.692Z,33.20
2022-12-04T01:49:18.973Z,34.97
2022-12-04T01:51:54.408Z,37.57
2022-12-04T01:54:28.561Z,37.33
2022-12-04T01:57:06.318Z,33.93
2022-12-04T01:59:38.306Z,35.17
2022-12-04T02:02:09.585Z,32.10
2022-12-04T02:04:37.177Z,32.17
2022-12-04T02:07:03.827Z,29.30
2022-12-04T02:09:31.479Z,32.23
2022-12-04T02:12:09.088Z,28.57
2022-12-04T02:14:52.236Z,30.43
2022-12-04T02:17:30.215Z,27.07
2022-12-04T02:20:10.191Z,27.40
2022-12-04T02:23:11.550Z,26.90
2022-12-04T02:26:15.898Z,25.47
2022-12-04T02:28:59.567Z,24.30
2022-12-04T02:31:33.624Z,26.90
2022-12-04T02:34:09.598Z,25.07
2022-12-04T02:36:44.719Z,26.23
2022-12-04T02:39:33.758Z,24.47
2022-12-04T02:42:18.843Z,24.83
2022-12-04T02:44:50.659Z,28.20
2022-12-04T02:47:22.099Z,26.47
2022-12-04T02:49:54.926Z,24.27
2022-12-04T02:52:35.119Z,24.73
2022-12-04T02:55:31.615Z,24.20
2022-12-04T02:58:05.095Z,22.13
2022-12-04T03:00:32.573Z,25.53
2022-12-04T03:03:11.005Z,26.47
2022-12-04T03:05:45.852Z,21.97
2022-12-04T03:08:21.350Z,22.47
2022-12-04T03:10:53.547Z,22.47
2022-12-04T03:13:31.320Z,19.27
2022-12-04T03:16:08.833Z,24.50
2022-12-04T03:18:46.628Z,21.83
2022-12-04T03:21:24.755Z,23.30
2022-12-04T03:23:59.571Z,21.33
2022-12-04T03:26:33.558Z,26.37
2022-12-04T03:29:15.464Z,23.67
2022-12-04T03:31:51.320Z,23.63
2022-12-04T03:34:36.225Z,20.47
2022-12-04T03:37:10.544Z,20.30
2022-12-04T03:40:03.088Z,19.90
2022-12-04T03:43:00.600Z,20.97
2022-12-04T03:45:35.562Z,21.50
2022-12-04T03:48:24.107Z,22.67
2022-12-04T03:51:07.427Z,20.33
2022-12-04T03:53:40.354Z,22.63
2022-12-04T03:56:15.240Z,23.33
2022-12-04T03:58:46.674Z,20.77
2022-12-04T04:01:15.207Z,20.00
2022-12-04T04:03:53.807Z,21.13
2022-12-04T04:06:34.171Z,20.07
2022-12-04T04:09:07.307Z,21.33
2022-12-04T04:12:00.579Z,23.37
2022-12-04T04:15:04.948Z,21.10
2022-12-04T04:17:53.803Z,20.00
2022-12-04T04:20:44.349Z,21.93
2022-12-04T04:23:36.454Z,22.87
2022-12-04T04:26:04.462Z,22.47
2022-12-04T04:28:40.183Z,25.00
2022-12-04T04:31:33.598Z,23.37
2022-12-04T04:34:24.905Z,23.53
2022-12-04T04:37:00.512Z,20.73
2022-12-04T04:39:48.772Z,22.27
2022-12-04T04:42:27.976Z,20.17
2022-12-04T04:45:06.398Z,22.47
2022-12-04T04:47:48.884Z,22.33
2022-12-04T04:50:17.985Z,16.50
2022-12-04T04:52:50.925Z,21.10
2022-12-04T04:55:19.344Z,21.47
2022-12-04T04:57:46.151Z,21.97
2022-12-04T05:00:15.824Z,24.40
2022-12-04T05:02:43.216Z,20.87
2022-12-04T05:05:11.950Z,21.03
2022-12-04T05:07:38.718Z,19.83
2022-12-04T05:10:06.461Z,21.47
2022-12-04T05:12:35.025Z,22.17
2022-12-04T05:15:01.831Z,20.87
2022-12-04T05:17:28.570Z,20.53
2022-12-04T05:19:56.570Z,20.87
2022-12-04T05:22:34.516Z,17.83
2022-12-04T05:25:01.609Z,20.30
2022-12-04T05:27:29.843Z,19.67
2022-12-04T05:30:00.913Z,21.27
2022-12-04T05:32:29.461Z,19.30
2022-12-04T05:34:57.054Z,21.33
2022-12-04T05:37:24.453Z,20.40
2022-12-04T05:39:51.174Z,21.53
2022-12-04T05:42:20.455Z,19.67
2022-12-04T05:44:48.915Z,18.53
2022-12-04T05:47:15.957Z,21.50
2022-12-04T05:49:42.607Z,17.30
2022-12-04T05:52:10.504Z,15.63
2022-12-04T05:54:37.303Z,17.83
2022-12-04T05:57:04.133Z,18.80
2022-12-04T05:59:30.916Z,19.10
2022-12-04T06:01:57.658Z,18.07
2022-12-04T06:04:25.360Z,18.60
2022-12-04T06:06:53.559Z,19.33
2022-12-04T06:09:20.226Z,20.30
2022-12-04T06:11:47.279Z,19.00
2022-12-04T06:14:15.792Z,17.60
2022-12-04T06:16:45.253Z,18.27
2022-12-04T06:19:15.869Z,18.93
2022-12-04T06:21:44.486Z,18.80
2022-12-04T06:24:17.402Z,20.13
2022-12-04T06:27:11.130Z,18.00
2022-12-04T06:29:31.629Z,19.17
2022-12-04T06:31:58.792Z,20.57
2022-12-04T06:34:28.226Z,20.40
2022-12-04T06:36:54.912Z,20.67
2022-12-04T06:39:21.752Z,19.53
2022-12-04T06:41:48.458Z,21.33
2022-12-04T06:44:16.230Z,23.53
2022-12-04T06:46:46.747Z,20.93
2022-12-04T06:49:14.393Z,21.27
2022-12-04T06:51:43.889Z,24.37
2022-12-04T06:54:10.855Z,20.40
2022-12-04T06:56:37.610Z,18.93
2022-12-04T06:59:05.309Z,21.20
2022-12-04T07:01:34.181Z,23.07
2022-12-04T07:04:03.657Z,22.47
2022-12-04T07:06:33.412Z,21.27
2022-12-04T07:09:11.467Z,21.70
2022-12-04T07:11:39.748Z,17.90
2022-12-04T07:14:06.836Z,22.23
2022-12-04T07:16:38.664Z,20.33
2022-12-04T07:19:13.071Z,21.03
2022-12-04T07:21:39.964Z,22.00
2022-12-04T07:24:07.164Z,22.00
2022-12-04T07:26:33.930Z,17.00
2022-12-04T07:29:00.706Z,20.07
2022-12-04T07:31:29.194Z,20.20
2022-12-04T07:33:56.590Z,18.27
2022-12-04T07:36:24.445Z,24.13
2022-12-04T07:38:51.901Z,22.60
2022-12-04T07:41:19.228Z,23.37
2022-12-04T07:43:46.243Z,20.57
2022-12-04T07:46:19.875Z,19.73
2022-12-04T07:48:46.674Z,22.63
2022-12-04T07:51:16.437Z,21.27
2022-12-04T07:53:43.735Z,17.23
2022-12-04T07:56:12.164Z,22.53
2022-12-04T07:58:39.867Z,18.60
2022-12-04T08:01:12.433Z,19.93
2022-12-04T08:03:45.447Z,20.10
2022-12-04T08:06:13.800Z,16.17
2022-12-04T08:08:40.596Z,20.80
2022-12-04T08:11:12.503Z,21.50
2022-12-04T08:13:39.255Z,20.17
2022-12-04T08:16:07.646Z,20.23
2022-12-04T08:18:34.828Z,23.03
2022-12-04T08:21:12.825Z,19.03
2022-12-04T08:23:41.081Z,18.20
2022-12-04T08:26:08.891Z,17.97
2022-12-04T08:28:36.312Z,16.93
2022-12-04T08:31:10.250Z,21.77
2022-12-04T08:33:37.072Z,20.43
2022-12-04T08:36:09.061Z,21.33
2022-12-04T08:38:36.042Z,22.97
2022-12-04T08:41:07.638Z,22.40
2022-12-04T08:43:34.952Z,21.80
2022-12-04T08:46:04.982Z,22.70
2022-12-04T08:48:34.770Z,21.30
2022-12-04T08:51:04.205Z,21.20
2022-12-04T08:53:31.876Z,24.30
2022-12-04T08:56:03.702Z,20.57
2022-12-04T08:58:30.653Z,21.17
2022-12-04T09:01:03.298Z,22.40
2022-12-04T09:03:31.170Z,28.00
2022-12-04T09:06:03.738Z,22.73
2022-12-04T09:08:31.609Z,21.23
2022-12-04T09:11:06.665Z,22.90
2022-12-04T09:13:34.574Z,24.37
2022-12-04T09:16:05.613Z,21.43
2022-12-04T09:18:33.051Z,26.50
2022-12-04T09:21:02.705Z,27.33
2022-12-04T09:23:29.591Z,26.03
2022-12-04T09:25:56.344Z,32.83
2022-12-04T09:28:23.095Z,28.13
2022-12-04T09:31:00.780Z,26.70
2022-12-04T09:33:28.026Z,27.20
2022-12-04T09:35:55.234Z,28.50
2022-12-04T09:38:22.020Z,29.57
2022-12-04T09:41:20.615Z,25.87
2022-12-04T09:43:57.877Z,27.20
2022-12-04T09:46:37.696Z,30.47
2022-12-04T09:49:14.008Z,26.10
2022-12-04T09:51:42.291Z,25.43
2022-12-04T09:54:18.076Z,23.43
2022-12-04T09:56:53.104Z,26.07
2022-12-04T09:59:23.383Z,24.50
2022-12-04T10:01:54.248Z,26.97
2022-12-04T10:04:21.142Z,25.80
2022-12-04T10:07:20.122Z,26.43
2022-12-04T10:10:19.196Z,27.77
2022-12-04T10:12:57.768Z,26.13
2022-12-04T10:15:28.457Z,29.50
2022-12-04T10:18:24.109Z,31.60
2022-12-04T10:21:09.739Z,25.30
2022-12-04T10:23:55.973Z,26.80
2022-12-04T10:26:32.150Z,25.77
2022-12-04T10:29:02.944Z,25.13
2022-12-04T10:31:31.945Z,27.27
2022-12-04T10:34:07.549Z,28.07
2022-12-04T10:36:35.234Z,24.67
2022-12-04T10:39:21.951Z,29.87
2022-12-04T10:42:01.069Z,26.83
2022-12-04T10:44:27.883Z,26.97
2022-12-04T10:47:00.343Z,27.67
2022-12-04T10:49:32.658Z,27.00
2022-12-04T10:51:59.540Z,27.60
2022-12-04T10:54:53.031Z,29.80
2022-12-04T10:57:19.744Z,28.57
2022-12-04T10:59:56.641Z,25.10
2022-12-04T11:02:29.832Z,27.17
2022-12-04T11:04:59.699Z,49.20
2022-12-04T11:07:29.301Z,32.93
2022-12-04T11:10:06.539Z,29.90
2022-12-04T11:12:33.734Z,30.00
2022-12-04T11:15:15.256Z,26.37
2022-12-04T11:17:41.960Z,26.23
2022-12-04T11:20:19.122Z,24.77
2022-12-04T11:22:56.882Z,22.90
2022-12-04T11:25:30.904Z,26.70
2022-12-04T11:28:01.413Z,23.63
2022-12-04T11:30:37.109Z,25.27
2022-12-04T11:33:07.262Z,23.90
2022-12-04T11:35:34.126Z,25.87
2022-12-04T11:38:16.173Z,25.47
2022-12-04T11:40:53.220Z,24.77
2022-12-04T11:43:21.216Z,25.47
2022-12-04T11:46:07.019Z,22.67
2022-12-04T11:48:43.821Z,20.70
2022-12-04T11:51:26.103Z,20.40
2022-12-04T11:54:25.329Z,21.70
2022-12-04T11:57:24.089Z,21.13
2022-12-04T12:00:12.693Z,24.03
2022-12-04T12:03:10.514Z,24.53
2022-12-04T12:05:49.849Z,25.30
2022-12-04T12:08:50.317Z,25.60
2022-12-04T12:11:36.007Z,25.53
2022-12-04T12:14:14.392Z,22.37
2022-12-04T12:16:59.178Z,25.80
2022-12-04T12:19:35.705Z,23.67
2022-12-04T12:22:26.617Z,26.20
2022-12-04T12:25:30.279Z,27.13
2022-12-04T12:28:00.120Z,24.27
2022-12-04T12:30:29.318Z,27.50
2022-12-04T12:33:15.054Z,27.20
2022-12-04T12:35:43.030Z,24.27
2022-12-04T12:38:33.269Z,27.67
2022-12-04T12:41:14.254Z,24.63
2022-12-04T12:43:43.913Z,21.60
2022-12-04T12:46:34.961Z,20.10
2022-12-04T12:49:16.625Z,22.77
2022-12-04T12:51:51.106Z,23.73
2022-12-04T12:54:32.867Z,25.80
2022-12-04T12:57:18.282Z,25.90
2022-12-04T12:59:57.077Z,28.53
2022-12-04T13:02:36.951Z,23.80
2022-12-04T13:05:10.393Z,32.00
2022-12-04T13:07:50.833Z,28.23
2022-12-04T13:10:25.225Z,22.67
2022-12-04T13:12:57.907Z,22.53
2022-12-04T13:15:33.635Z,24.90
2022-12-04T13:18:01.251Z,24.00
2022-12-04T13:20:39.156Z,24.20
2022-12-04T13:23:10.643Z,24.90
2022-12-04T13:25:43.099Z,25.80
2022-12-04T13:28:36.205Z,26.93
2022-12-04T13:31:29.320Z,27.17
2022-12-04T13:33:59.049Z,26.10
2022-12-04T13:36:31.517Z,26.23
2022-12-04T13:39:07.344Z,26.90
2022-12-04T13:41:37.445Z,26.83
2022-12-04T13:44:23.233Z,26.73
2022-12-04T13:47:08.486Z,27.63
2022-12-04T13:49:37.276Z,24.23
2022-12-04T13:52:07.021Z,23.60
2022-12-04T13:54:35.921Z,24.70
2022-12-04T13:57:21.952Z,27.10
2022-12-04T13:59:49.406Z,23.23
2022-12-04T14:02:28.618Z,27.43
2022-12-04T14:05:06.610Z,25.17
2022-12-04T14:07:57.601Z,28.97
2022-12-04T14:10:29.175Z,20.80
2022-12-04T14:13:12.842Z,28.47
2022-12-04T14:15:40.171Z,25.90
2022-12-04T14:18:21.748Z,33.60
2022-12-04T14:21:07.547Z,35.73
2022-12-04T14:23:38.059Z,29.60
2022-12-04T14:26:07.780Z,29.47
2022-12-04T14:28:41.710Z,27.07
2022-12-04T14:31:09.091Z,26.67
2022-12-04T14:34:03.108Z,28.20
2022-12-04T14:36:43.436Z,31.53
2022-12-04T14:39:25.669Z,27.13
2022-12-04T14:42:03.850Z,27.23
2022-12-04T14:44:31.922Z,27.00
2022-12-04T14:47:15.379Z,32.00
2022-12-04T14:50:04.375Z,29.63
2022-12-04T14:52:57.876Z,28.50
2022-12-04T14:55:43.358Z,29.33
2022-12-04T14:58:31.956Z,29.00
2022-12-04T15:01:22.663Z,33.37
2022-12-04T15:03:56.032Z,29.67
2022-12-04T15:06:31.510Z,30.07
2022-12-04T15:09:19.247Z,25.43
2022-12-04T15:12:13.284Z,26.20
2022-12-04T15:14:44.106Z,26.47
2022-12-04T15:17:12.279Z,25.50
2022-12-04T15:19:39.805Z,27.73
2022-12-04T15:22:22.552Z,25.87
2022-12-04T15:24:51.068Z,29.10
2022-12-04T15:27:21.070Z,24.93
2022-12-04T15:29:51.344Z,27.10
2022-12-04T15:32:21.697Z,29.70
2022-12-04T15:35:09.708Z,36.27
2022-12-04T15:37:36.864Z,32.70
2022-12-04T15:40:09.086Z,35.83
2022-12-04T15:42:35.719Z,34.90
2022-12-04T15:45:23.228Z,29.20
2022-12-04T15:47:53.736Z,27.57
2022-12-04T15:50:27.050Z,39.40
2022-12-04T15:52:59.320Z,29.87
2022-12-04T15:55:28.258Z,28.73
2022-12-04T15:58:06.291Z,34.27
2022-12-04T16:00:37.547Z,33.33
2022-12-04T16:03:26.804Z,29.73
2022-12-04T16:06:04.790Z,33.10
2022-12-04T16:08:33.983Z,40.43
2022-12-04T16:11:22.571Z,36.57
2022-12-04T16:14:01.803Z,39.83
2022-12-04T16:16:28.805Z,35.43
2022-12-04T16:18:55.714Z,33.57
2022-12-04T16:21:27.964Z,28.70
2022-12-04T16:23:54.591Z,34.43
2022-12-04T16:26:21.297Z,34.63
2022-12-04T16:28:47.966Z,30.40
2022-12-04T16:31:18.341Z,36.70
2022-12-04T16:33:45.055Z,32.37
2022-12-04T16:36:11.710Z,31.67
2022-12-04T16:38:38.349Z,32.00
2022-12-04T16:41:05.881Z,32.33
2022-12-04T16:43:32.649Z,33.60
2022-12-04T16:46:01.522Z,34.70
2022-12-04T16:48:29.638Z,33.23
2022-12-04T16:50:56.335Z,33.93
2022-12-04T16:53:23.349Z,33.03
2022-12-04T16:55:51.727Z,33.57
2022-12-04T16:58:20.389Z,34.37
2022-12-04T17:00:53.237Z,37.37
2022-12-04T17:03:32.867Z,39.07
2022-12-04T17:06:00.770Z,44.13
2022-12-04T17:08:28.393Z,38.17
2022-12-04T17:10:55.258Z,39.43
2022-12-04T17:13:22.621Z,45.23
2022-12-04T17:15:49.674Z,42.40
2022-12-04T17:18:21.127Z,39.07
2022-12-04T17:20:48.792Z,39.57
2022-12-04T17:23:16.010Z,33.00
2022-12-04T17:25:42.743Z,44.77
2022-12-04T17:28:09.767Z,38.30
2022-12-04T17:30:36.791Z,48.33
2022-12-04T17:33:04.836Z,33.67
2022-12-04T17:35:32.020Z,35.87
2022-12-04T17:38:04.065Z,42.60
2022-12-04T17:40:33.251Z,32.67
2022-12-04T17:43:00.148Z,33.87
2022-12-04T17:45:27.032Z,42.33
2022-12-04T17:47:53.658Z,36.40
2022-12-04T17:50:20.558Z,41.33
2022-12-04T17:52:47.278Z,45.13
2022-12-04T17:55:14.232Z,39.60
2022-12-04T17:57:41.038Z,38.23
2022-12-04T18:00:08.403Z,42.77
2022-12-04T18:02:35.907Z,40.13
2022-12-04T18:05:02.691Z,45.03
2022-12-04T18:07:30.922Z,41.73
2022-12-04T18:09:57.918Z,41.33
2022-12-04T18:12:24.937Z,44.97
2022-12-04T18:14:52.877Z,38.17
2022-12-04T18:17:20.872Z,44.37
2022-12-04T18:19:47.604Z,43.70
2022-12-04T18:22:14.345Z,42.77
2022-12-04T18:24:41.107Z,42.40
2022-12-04T18:27:08.312Z,48.00
2022-12-04T18:29:35.118Z,42.23
2022-12-04T18:32:01.927Z,45.43
2022-12-04T18:34:28.752Z,32.70
2022-12-04T18:36:55.476Z,42.23
2022-12-04T18:39:24.175Z,39.20
2022-12-04T18:41:51.193Z,41.70
2022-12-04T18:44:18.035Z,40.13
2022-12-04T18:46:44.759Z,34.97
2022-12-04T18:49:12.019Z,33.10
2022-12-04T18:51:48.954Z,42.67
2022-12-04T18:54:19.349Z,40.57
2022-12-04T18:56:46.586Z,41.73
2022-12-04T18:59:25.174Z,53.67
2022-12-04T19:01:53.401Z,46.03
2022-12-04T19:04:22.187Z,40.97
2022-12-04T19:06:54.967Z,41.03
2022-12-04T19:09:47.203Z,43.43
2022-12-04T19:12:12.907Z,31.60
2022-12-04T19:14:39.924Z,37.27
2022-12-04T19:17:06.970Z,32.33
2022-12-04T19:19:33.789Z,38.63
2022-12-04T19:22:01.222Z,35.77
2022-12-04T19:24:27.991Z,43.53
2022-12-04T19:26:55.058Z,45.17
2022-12-04T19:29:21.874Z,46.50
2022-12-04T19:31:48.641Z,43.37
2022-12-04T19:34:15.493Z,39.43
2022-12-04T19:36:42.654Z,40.00
2022-12-04T19:39:10.096Z,51.50
2022-12-04T19:41:41.500Z,49.30
2022-12-04T19:44:40.205Z,50.13
2022-12-04T19:46:56.748Z,43.50
2022-12-04T19:49:23.794Z,43.40
2022-12-04T19:51:50.609Z,50.40
2022-12-04T19:54:17.486Z,43.87
2022-12-04T19:56:49.045Z,43.70
2022-12-04T19:59:15.832Z,39.00
2022-12-04T20:01:42.794Z,37.67
2022-12-04T20:04:10.704Z,42.83
2022-12-04T20:06:40.891Z,42.60
2022-12-04T20:09:10.711Z,39.67
2022-12-04T20:11:40.133Z,41.60
2022-12-04T20:14:08.172Z,42.57
2022-12-04T20:16:35.752Z,39.80
2022-12-04T20:19:04.444Z,45.33
2022-12-04T20:21:32.511Z,43.77
2022-12-04T20:24:03.980Z,45.07
2022-12-04T20:26:34.338Z,41.10
2022-12-04T20:29:02.188Z,38.43
2022-12-04T20:31:30.457Z,46.83
2022-12-04T20:33:59.211Z,48.13
2022-12-04T20:36:28.251Z,43.40
2022-12-04T20:38:59.809Z,45.90
2022-12-04T20:41:28.809Z,40.93
2022-12-04T20:43:58.259Z,46.00
2022-12-04T20:46:25.070Z,42.53
2022-12-04T20:48:53.533Z,40.10
2022-12-04T20:51:24.725Z,43.27
2022-12-04T20:53:53.097Z,47.60
2022-12-04T20:56:21.866Z,43.70
2022-12-04T20:58:48.834Z,45.03
2022-12-04T21:01:18.389Z,39.90
2022-12-04T21:03:46.076Z,44.50
2022-12-04T21:06:15.880Z,40.07
2022-12-04T21:08:57.053Z,40.50
2022-12-04T21:11:29.165Z,43.67
2022-12-04T21:14:16.343Z,40.53
2022-12-04T21:16:43.384Z,41.77
2022-12-04T21:19:14.129Z,43.37
2022-12-04T21:21:41.243Z,40.33
2022-12-04T21:24:10.910Z,40.57
2022-12-04T21:26:37.948Z,44.33
2022-12-04T21:29:07.470Z,48.40
2022-12-04T21:31:35.879Z,38.03
2022-12-04T21:34:04.656Z,40.37
2022-12-04T21:36:31.648Z,37.37
2022-12-04T21:38:58.336Z,32.53
2022-12-04T21:41:43.963Z,34.90
2022-12-04T21:44:35.093Z,36.87
2022-12-04T21:47:01.973Z,33.87
2022-12-04T21:49:28.828Z,31.87
2022-12-04T21:51:58.148Z,31.30
2022-12-04T21:54:26.924Z,27.40
2022-12-04T21:56:54.329Z,28.10
2022-12-04T21:59:21.265Z,31.17
2022-12-04T22:01:48.018Z,33.70
2022-12-04T22:04:15.322Z,29.10
2022-12-04T22:06:42.386Z,32.37
2022-12-04T22:09:13.273Z,28.07
2022-12-04T22:11:41.577Z,28.67
2022-12-04T22:14:09.478Z,26.63
2022-12-04T22:16:41.620Z,25.30
2022-12-04T22:19:09.185Z,27.13
2022-12-04T22:21:35.914Z,28.77
2022-12-04T22:24:04.192Z,28.40
2022-12-04T22:26:31.395Z,27.20
2022-12-04T22:28:58.170Z,26.60
2022-12-04T22:31:27.004Z,27.70
2022-12-04T22:33:56.312Z,30.37
2022-12-04T22:36:28.219Z,30.50
2022-12-04T22:39:11.243Z,19.73
2022-12-04T22:41:38.557Z,23.53
2022-12-04T22:44:05.791Z,20.90
2022-12-04T22:46:33.124Z,18.73
2022-12-04T22:49:00.377Z,20.83
2022-12-04T22:51:28.146Z,19.87
2022-12-04T22:53:56.979Z,17.57
2022-12-04T22:56:23.757Z,17.27
2022-12-04T22:58:51.550Z,19.47
2022-12-04T23:01:23.723Z,19.17
2022-12-04T23:03:51.290Z,20.77
2022-12-04T23:06:20.091Z,19.63
2022-12-04T23:08:47.457Z,17.20
2022-12-04T23:11:21.809Z,18.20
2022-12-04T23:14:00.472Z,18.40
2022-12-04T23:16:29.240Z,18.20
2022-12-04T23:18:56.348Z,19.10
2022-12-04T23:21:24.191Z,17.30
2022-12-04T23:23:52.733Z,16.27
2022-12-04T23:26:25.250Z,16.53
2022-12-04T23:28:52.232Z,18.00
2022-12-04T23:31:19.544Z,15.37
2022-12-04T23:33:46.626Z,15.17
2022-12-04T23:36:14.224Z,22.27
2022-12-04T23:38:42.836Z,18.13
2022-12-04T23:41:15.148Z,20.07
2022-12-04T23:43:43.065Z,18.23
2022-12-04T23:46:11.759Z,21.03
2022-12-04T23:48:39.992Z,20.37
2022-12-04T23:51:07.962Z,19.43
2022-12-04T23:53:34.815Z,22.23
2022-12-04T23:56:16.516Z,24.07
2022-12-04T23:58:44.468Z,23.70
